Terminal Aerodrome Forecast
Issued by NWS Tulsa, OK

Home | Current Version | Previous Version | Text Only | Print | Product List | Glossary On
Versions: 1 2 3 4 5 6 7 8 9 10 11 12 13
479
FTUS44 KTSA 262320
TAFTUL
TAF
KTUL 262320Z 2700/2724 18014KT P6SM FEW060 OVC250
     FM270200 17011KT P6SM BKN250
     FM271700 22011KT P6SM SCT050 BKN200=

USA.gov is the U.S. government's official web portal to all federal, state and local government web resources and services.